sensor_id;sensor_type;location;lat;lon;timestamp;P1;durP1;ratioP1;P2;durP2;ratioP2
37715;SDS011;23562;50.540;12.504;2023-11-19T00:00:17;0.73;;;0.60;;
37715;SDS011;23562;50.540;12.504;2023-11-19T00:02:43;0.70;;;0.60;;
37715;SDS011;23562;50.540;12.504;2023-11-19T00:05:08;1.55;;;0.70;;
37715;SDS011;23562;50.540;12.504;2023-11-19T00:07:34;2.10;;;0.63;;
37715;SDS011;23562;50.540;12.504;2023-11-19T00:09:59;1.02;;;0.70;;
37715;SDS011;23562;50.540;12.504;2023-11-19T00:12:34;1.15;;;0.80;;
37715;SDS011;23562;50.540;12.504;2023-11-19T00:14:59;1.30;;;0.60;;
37715;SDS011;23562;50.540;12.504;2023-11-19T00:17:25;1.35;;;0.90;;
37715;SDS011;23562;50.540;12.504;2023-11-19T00:19:50;1.05;;;0.80;;
37715;SDS011;23562;50.540;12.504;2023-11-19T00:22:16;1.42;;;0.90;;
37715;SDS011;23562;50.540;12.504;2023-11-19T00:24:41;1.13;;;0.80;;
37715;SDS011;23562;50.540;12.504;2023-11-19T00:27:06;0.88;;;0.65;;
37715;SDS011;23562;50.540;12.504;2023-11-19T00:29:32;1.00;;;0.70;;
37715;SDS011;23562;50.540;12.504;2023-11-19T00:31:57;0.55;;;0.55;;
37715;SDS011;23562;50.540;12.504;2023-11-19T00:34:23;1.85;;;0.90;;
37715;SDS011;23562;50.540;12.504;2023-11-19T00:36:48;2.50;;;1.00;;
37715;SDS011;23562;50.540;12.504;2023-11-19T00:39:13;1.52;;;1.00;;
37715;SDS011;23562;50.540;12.504;2023-11-19T00:41:40;0.93;;;0.68;;
37715;SDS011;23562;50.540;12.504;2023-11-19T00:44:05;1.60;;;0.80;;
37715;SDS011;23562;50.540;12.504;2023-11-19T00:46:30;1.17;;;0.80;;
37715;SDS011;23562;50.540;12.504;2023-11-19T00:48:56;1.33;;;0.90;;
37715;SDS011;23562;50.540;12.504;2023-11-19T00:51:23;1.15;;;0.80;;
37715;SDS011;23562;50.540;12.504;2023-11-19T00:53:49;1.40;;;0.80;;
37715;SDS011;23562;50.540;12.504;2023-11-19T00:56:14;1.35;;;1.00;;
37715;SDS011;23562;50.540;12.504;2023-11-19T00:58:39;0.90;;;0.80;;
37715;SDS011;23562;50.540;12.504;2023-11-19T01:01:04;1.07;;;0.80;;
37715;SDS011;23562;50.540;12.504;2023-11-19T01:03:30;0.80;;;0.70;;
37715;SDS011;23562;50.540;12.504;2023-11-19T01:05:55;0.70;;;0.70;;
37715;SDS011;23562;50.540;12.504;2023-11-19T01:08:20;0.80;;;0.70;;
37715;SDS011;23562;50.540;12.504;2023-11-19T01:10:45;1.35;;;0.88;;
37715;SDS011;23562;50.540;12.504;2023-11-19T01:13:10;1.35;;;0.85;;
37715;SDS011;23562;50.540;12.504;2023-11-19T01:15:36;0.93;;;0.77;;
37715;SDS011;23562;50.540;12.504;2023-11-19T01:18:01;1.60;;;0.90;;
37715;SDS011;23562;50.540;12.504;2023-11-19T01:20:30;3.75;;;1.05;;
37715;SDS011;23562;50.540;12.504;2023-11-19T01:22:55;1.47;;;0.90;;
37715;SDS011;23562;50.540;12.504;2023-11-19T01:25:21;1.70;;;0.90;;
37715;SDS011;23562;50.540;12.504;2023-11-19T01:27:46;0.83;;;0.83;;
37715;SDS011;23562;50.540;12.504;2023-11-19T01:30:12;1.45;;;0.90;;
37715;SDS011;23562;50.540;12.504;2023-11-19T01:32:38;1.10;;;1.00;;
37715;SDS011;23562;50.540;12.504;2023-11-19T01:35:03;1.67;;;1.10;;
37715;SDS011;23562;50.540;12.504;2023-11-19T01:37:29;1.02;;;0.90;;
37715;SDS011;23562;50.540;12.504;2023-11-19T01:39:54;0.90;;;0.90;;
37715;SDS011;23562;50.540;12.504;2023-11-19T01:42:19;1.10;;;0.90;;
37715;SDS011;23562;50.540;12.504;2023-11-19T01:44:54;1.50;;;1.20;;
37715;SDS011;23562;50.540;12.504;2023-11-19T01:47:19;0.98;;;0.90;;
37715;SDS011;23562;50.540;12.504;2023-11-19T01:49:45;2.03;;;0.90;;
37715;SDS011;23562;50.540;12.504;2023-11-19T01:52:10;0.80;;;0.80;;
37715;SDS011;23562;50.540;12.504;2023-11-19T01:54:35;1.50;;;0.85;;
37715;SDS011;23562;50.540;12.504;2023-11-19T01:57:00;1.10;;;0.77;;
37715;SDS011;23562;50.540;12.504;2023-11-19T01:59:26;0.90;;;0.80;;
37715;SDS011;23562;50.540;12.504;2023-11-19T02:05:05;0.82;;;0.80;;
37715;SDS011;23562;50.540;12.504;2023-11-19T02:07:30;0.80;;;0.80;;
37715;SDS011;23562;50.540;12.504;2023-11-19T02:09:56;1.00;;;0.90;;
37715;SDS011;23562;50.540;12.504;2023-11-19T02:12:24;1.00;;;0.90;;
37715;SDS011;23562;50.540;12.504;2023-11-19T02:14:49;1.25;;;1.00;;
37715;SDS011;23562;50.540;12.504;2023-11-19T02:17:27;1.10;;;0.90;;
37715;SDS011;23562;50.540;12.504;2023-11-19T02:19:52;0.80;;;0.80;;
37715;SDS011;23562;50.540;12.504;2023-11-19T02:22:18;0.80;;;0.80;;
37715;SDS011;23562;50.540;12.504;2023-11-19T02:24:43;0.90;;;0.80;;
37715;SDS011;23562;50.540;12.504;2023-11-19T02:27:10;1.00;;;0.88;;
37715;SDS011;23562;50.540;12.504;2023-11-19T02:29:37;1.40;;;0.90;;
37715;SDS011;23562;50.540;12.504;2023-11-19T02:32:03;0.90;;;0.90;;
37715;SDS011;23562;50.540;12.504;2023-11-19T02:34:28;0.80;;;0.80;;
37715;SDS011;23562;50.540;12.504;2023-11-19T02:36:53;0.80;;;0.70;;
37715;SDS011;23562;50.540;12.504;2023-11-19T02:39:18;1.42;;;0.80;;
37715;SDS011;23562;50.540;12.504;2023-11-19T02:41:46;0.80;;;0.80;;
37715;SDS011;23562;50.540;12.504;2023-11-19T02:44:12;0.88;;;0.80;;
37715;SDS011;23562;50.540;12.504;2023-11-19T02:46:38;1.25;;;0.85;;
37715;SDS011;23562;50.540;12.504;2023-11-19T02:49:03;3.67;;;0.77;;
37715;SDS011;23562;50.540;12.504;2023-11-19T02:51:28;1.30;;;0.80;;
37715;SDS011;23562;50.540;12.504;2023-11-19T02:53:55;0.80;;;0.65;;
37715;SDS011;23562;50.540;12.504;2023-11-19T02:56:20;1.35;;;0.80;;
37715;SDS011;23562;50.540;12.504;2023-11-19T02:58:50;1.00;;;0.90;;
37715;SDS011;23562;50.540;12.504;2023-11-19T03:01:21;1.00;;;0.80;;
37715;SDS011;23562;50.540;12.504;2023-11-19T03:03:49;0.60;;;0.60;;
37715;SDS011;23562;50.540;12.504;2023-11-19T03:06:19;0.65;;;0.55;;
37715;SDS011;23562;50.540;12.504;2023-11-19T03:08:44;0.60;;;0.60;;
37715;SDS011;23562;50.540;12.504;2023-11-19T03:11:09;0.60;;;0.60;;
37715;SDS011;23562;50.540;12.504;2023-11-19T03:13:34;0.60;;;0.60;;
37715;SDS011;23562;50.540;12.504;2023-11-19T03:15:59;0.60;;;0.60;;
37715;SDS011;23562;50.540;12.504;2023-11-19T03:18:25;0.80;;;0.70;;
37715;SDS011;23562;50.540;12.504;2023-11-19T03:20:50;0.60;;;0.50;;
37715;SDS011;23562;50.540;12.504;2023-11-19T03:23:15;1.25;;;0.60;;
37715;SDS011;23562;50.540;12.504;2023-11-19T03:25:40;0.50;;;0.50;;
37715;SDS011;23562;50.540;12.504;2023-11-19T03:28:05;0.60;;;0.60;;
37715;SDS011;23562;50.540;12.504;2023-11-19T03:30:31;0.77;;;0.63;;
37715;SDS011;23562;50.540;12.504;2023-11-19T03:32:56;0.50;;;0.50;;
37715;SDS011;23562;50.540;12.504;2023-11-19T03:35:22;0.60;;;0.60;;
37715;SDS011;23562;50.540;12.504;2023-11-19T03:37:47;0.60;;;0.52;;
37715;SDS011;23562;50.540;12.504;2023-11-19T03:40:13;0.50;;;0.50;;
37715;SDS011;23562;50.540;12.504;2023-11-19T03:42:38;0.80;;;0.50;;
37715;SDS011;23562;50.540;12.504;2023-11-19T03:45:05;0.60;;;0.50;;
37715;SDS011;23562;50.540;12.504;2023-11-19T03:47:30;1.38;;;0.60;;
37715;SDS011;23562;50.540;12.504;2023-11-19T03:49:55;0.70;;;0.60;;
37715;SDS011;23562;50.540;12.504;2023-11-19T03:52:20;0.50;;;0.50;;
37715;SDS011;23562;50.540;12.504;2023-11-19T03:54:46;0.70;;;0.70;;
37715;SDS011;23562;50.540;12.504;2023-11-19T03:57:14;0.60;;;0.60;;
37715;SDS011;23562;50.540;12.504;2023-11-19T03:59:40;0.50;;;0.50;;
37715;SDS011;23562;50.540;12.504;2023-11-19T04:02:05;0.50;;;0.50;;
37715;SDS011;23562;50.540;12.504;2023-11-19T04:04:31;0.60;;;0.60;;
37715;SDS011;23562;50.540;12.504;2023-11-19T04:06:56;0.50;;;0.50;;
37715;SDS011;23562;50.540;12.504;2023-11-19T04:09:22;0.68;;;0.68;;
37715;SDS011;23562;50.540;12.504;2023-11-19T04:11:48;0.60;;;0.60;;
37715;SDS011;23562;50.540;12.504;2023-11-19T04:14:13;0.50;;;0.50;;
37715;SDS011;23562;50.540;12.504;2023-11-19T04:16:39;0.57;;;0.57;;
37715;SDS011;23562;50.540;12.504;2023-11-19T04:19:04;0.63;;;0.63;;
37715;SDS011;23562;50.540;12.504;2023-11-19T04:21:29;0.50;;;0.50;;
37715;SDS011;23562;50.540;12.504;2023-11-19T04:23:55;0.60;;;0.60;;
37715;SDS011;23562;50.540;12.504;2023-11-19T04:26:20;0.80;;;0.80;;
37715;SDS011;23562;50.540;12.504;2023-11-19T04:28:45;0.70;;;0.70;;
37715;SDS011;23562;50.540;12.504;2023-11-19T04:31:10;0.70;;;0.70;;
37715;SDS011;23562;50.540;12.504;2023-11-19T04:33:35;0.60;;;0.60;;
37715;SDS011;23562;50.540;12.504;2023-11-19T04:36:01;1.20;;;0.68;;
37715;SDS011;23562;50.540;12.504;2023-11-19T04:38:27;0.65;;;0.60;;
37715;SDS011;23562;50.540;12.504;2023-11-19T04:40:52;0.70;;;0.70;;
37715;SDS011;23562;50.540;12.504;2023-11-19T04:43:17;0.60;;;0.60;;
37715;SDS011;23562;50.540;12.504;2023-11-19T04:45:42;0.70;;;0.60;;
37715;SDS011;23562;50.540;12.504;2023-11-19T04:48:08;0.70;;;0.68;;
37715;SDS011;23562;50.540;12.504;2023-11-19T04:50:34;0.60;;;0.60;;
37715;SDS011;23562;50.540;12.504;2023-11-19T04:52:59;0.60;;;0.60;;
37715;SDS011;23562;50.540;12.504;2023-11-19T04:55:25;0.57;;;0.57;;
37715;SDS011;23562;50.540;12.504;2023-11-19T04:57:50;0.55;;;0.55;;
37715;SDS011;23562;50.540;12.504;2023-11-19T05:00:15;0.50;;;0.50;;
37715;SDS011;23562;50.540;12.504;2023-11-19T05:02:40;0.60;;;0.60;;
37715;SDS011;23562;50.540;12.504;2023-11-19T05:05:05;0.50;;;0.50;;
37715;SDS011;23562;50.540;12.504;2023-11-19T05:07:31;0.40;;;0.40;;
37715;SDS011;23562;50.540;12.504;2023-11-19T05:09:56;0.40;;;0.40;;
37715;SDS011;23562;50.540;12.504;2023-11-19T05:12:21;0.65;;;0.50;;
37715;SDS011;23562;50.540;12.504;2023-11-19T05:14:47;0.50;;;0.50;;
37715;SDS011;23562;50.540;12.504;2023-11-19T05:17:15;0.60;;;0.60;;
37715;SDS011;23562;50.540;12.504;2023-11-19T05:19:40;0.47;;;0.47;;
37715;SDS011;23562;50.540;12.504;2023-11-19T05:22:05;2.20;;;0.43;;
37715;SDS011;23562;50.540;12.504;2023-11-19T05:24:31;1.45;;;0.50;;
37715;SDS011;23562;50.540;12.504;2023-11-19T05:26:56;0.65;;;0.50;;
37715;SDS011;23562;50.540;12.504;2023-11-19T05:29:23;0.40;;;0.40;;
37715;SDS011;23562;50.540;12.504;2023-11-19T05:31:48;0.68;;;0.50;;
37715;SDS011;23562;50.540;12.504;2023-11-19T05:34:13;0.50;;;0.50;;
37715;SDS011;23562;50.540;12.504;2023-11-19T05:36:40;0.40;;;0.40;;
37715;SDS011;23562;50.540;12.504;2023-11-19T05:39:05;0.40;;;0.40;;
37715;SDS011;23562;50.540;12.504;2023-11-19T05:41:30;0.55;;;0.55;;
37715;SDS011;23562;50.540;12.504;2023-11-19T05:43:55;0.50;;;0.50;;
37715;SDS011;23562;50.540;12.504;2023-11-19T05:46:20;0.40;;;0.40;;
37715;SDS011;23562;50.540;12.504;2023-11-19T05:48:45;0.30;;;0.30;;
37715;SDS011;23562;50.540;12.504;2023-11-19T05:51:11;0.30;;;0.30;;
37715;SDS011;23562;50.540;12.504;2023-11-19T05:53:36;0.30;;;0.30;;
37715;SDS011;23562;50.540;12.504;2023-11-19T05:56:10;0.50;;;0.50;;
37715;SDS011;23562;50.540;12.504;2023-11-19T05:58:35;0.95;;;0.30;;
37715;SDS011;23562;50.540;12.504;2023-11-19T06:01:01;0.43;;;0.43;;
37715;SDS011;23562;50.540;12.504;2023-11-19T06:03:33;0.93;;;0.50;;
37715;SDS011;23562;50.540;12.504;2023-11-19T06:05:58;0.32;;;0.32;;
37715;SDS011;23562;50.540;12.504;2023-11-19T06:08:23;0.40;;;0.40;;
37715;SDS011;23562;50.540;12.504;2023-11-19T06:10:49;0.50;;;0.50;;
37715;SDS011;23562;50.540;12.504;2023-11-19T06:13:16;0.60;;;0.50;;
37715;SDS011;23562;50.540;12.504;2023-11-19T06:15:41;1.15;;;0.50;;
37715;SDS011;23562;50.540;12.504;2023-11-19T06:18:06;1.02;;;0.50;;
37715;SDS011;23562;50.540;12.504;2023-11-19T06:20:32;0.50;;;0.50;;
37715;SDS011;23562;50.540;12.504;2023-11-19T06:22:57;0.80;;;0.60;;
37715;SDS011;23562;50.540;12.504;2023-11-19T06:25:23;0.60;;;0.60;;
37715;SDS011;23562;50.540;12.504;2023-11-19T06:27:49;1.52;;;0.73;;
37715;SDS011;23562;50.540;12.504;2023-11-19T06:30:14;1.02;;;0.70;;
37715;SDS011;23562;50.540;12.504;2023-11-19T06:32:39;2.92;;;2.30;;
37715;SDS011;23562;50.540;12.504;2023-11-19T06:35:04;2.92;;;2.03;;
37715;SDS011;23562;50.540;12.504;2023-11-19T06:37:30;35.00;;;21.17;;
37715;SDS011;23562;50.540;12.504;2023-11-19T06:39:55;10.15;;;8.13;;
37715;SDS011;23562;50.540;12.504;2023-11-19T06:42:20;2.10;;;1.90;;
37715;SDS011;23562;50.540;12.504;2023-11-19T06:44:45;1.10;;;1.00;;
37715;SDS011;23562;50.540;12.504;2023-11-19T06:47:11;3.77;;;0.80;;
37715;SDS011;23562;50.540;12.504;2023-11-19T06:49:36;1.50;;;0.80;;
37715;SDS011;23562;50.540;12.504;2023-11-19T06:52:01;2.65;;;1.52;;
37715;SDS011;23562;50.540;12.504;2023-11-19T06:54:26;2.80;;;2.00;;
37715;SDS011;23562;50.540;12.504;2023-11-19T06:56:51;2.42;;;1.80;;
37715;SDS011;23562;50.540;12.504;2023-11-19T06:59:16;1.30;;;0.80;;
37715;SDS011;23562;50.540;12.504;2023-11-19T07:01:42;1.90;;;1.70;;
37715;SDS011;23562;50.540;12.504;2023-11-19T07:04:10;1.60;;;1.50;;
37715;SDS011;23562;50.540;12.504;2023-11-19T07:06:35;1.02;;;0.93;;
37715;SDS011;23562;50.540;12.504;2023-11-19T07:09:01;1.13;;;1.02;;
37715;SDS011;23562;50.540;12.504;2023-11-19T07:11:34;1.13;;;0.93;;
37715;SDS011;23562;50.540;12.504;2023-11-19T07:14:00;1.48;;;1.02;;
37715;SDS011;23562;50.540;12.504;2023-11-19T07:16:25;2.00;;;1.60;;
37715;SDS011;23562;50.540;12.504;2023-11-19T07:18:50;2.88;;;2.00;;
37715;SDS011;23562;50.540;12.504;2023-11-19T07:21:15;2.85;;;1.20;;
37715;SDS011;23562;50.540;12.504;2023-11-19T07:23:41;2.10;;;1.63;;
37715;SDS011;23562;50.540;12.504;2023-11-19T07:26:06;1.45;;;1.20;;
37715;SDS011;23562;50.540;12.504;2023-11-19T07:28:33;1.55;;;0.90;;
37715;SDS011;23562;50.540;12.504;2023-11-19T07:30:58;1.38;;;1.00;;
37715;SDS011;23562;50.540;12.504;2023-11-19T07:33:23;1.67;;;1.10;;
37715;SDS011;23562;50.540;12.504;2023-11-19T07:35:48;1.48;;;1.15;;
37715;SDS011;23562;50.540;12.504;2023-11-19T07:38:13;2.73;;;1.67;;
37715;SDS011;23562;50.540;12.504;2023-11-19T07:40:39;2.40;;;1.07;;
37715;SDS011;23562;50.540;12.504;2023-11-19T07:43:04;1.45;;;1.35;;
37715;SDS011;23562;50.540;12.504;2023-11-19T07:45:29;4.77;;;2.83;;
37715;SDS011;23562;50.540;12.504;2023-11-19T07:47:54;4.28;;;2.10;;
37715;SDS011;23562;50.540;12.504;2023-11-19T07:50:19;6.87;;;2.17;;
37715;SDS011;23562;50.540;12.504;2023-11-19T07:52:45;2.92;;;1.70;;
37715;SDS011;23562;50.540;12.504;2023-11-19T07:55:10;1.73;;;1.63;;
37715;SDS011;23562;50.540;12.504;2023-11-19T07:57:35;2.33;;;1.50;;
37715;SDS011;23562;50.540;12.504;2023-11-19T08:00:00;6.33;;;4.73;;
37715;SDS011;23562;50.540;12.504;2023-11-19T08:02:26;1.70;;;1.52;;
37715;SDS011;23562;50.540;12.504;2023-11-19T08:04:51;2.53;;;1.40;;
37715;SDS011;23562;50.540;12.504;2023-11-19T08:07:17;1.95;;;1.52;;
37715;SDS011;23562;50.540;12.504;2023-11-19T08:09:43;1.70;;;1.42;;
37715;SDS011;23562;50.540;12.504;2023-11-19T08:12:08;1.70;;;1.27;;
37715;SDS011;23562;50.540;12.504;2023-11-19T08:14:34;6.47;;;1.53;;
37715;SDS011;23562;50.540;12.504;2023-11-19T08:16:59;2.25;;;1.60;;
37715;SDS011;23562;50.540;12.504;2023-11-19T08:19:31;4.93;;;1.52;;
37715;SDS011;23562;50.540;12.504;2023-11-19T08:22:04;3.83;;;1.50;;
37715;SDS011;23562;50.540;12.504;2023-11-19T08:24:29;3.17;;;1.80;;
37715;SDS011;23562;50.540;12.504;2023-11-19T08:26:55;4.13;;;1.70;;
37715;SDS011;23562;50.540;12.504;2023-11-19T08:29:20;2.30;;;1.80;;
37715;SDS011;23562;50.540;12.504;2023-11-19T08:31:46;4.28;;;2.10;;
37715;SDS011;23562;50.540;12.504;2023-11-19T08:34:11;2.67;;;1.75;;
37715;SDS011;23562;50.540;12.504;2023-11-19T08:36:36;3.30;;;1.80;;
37715;SDS011;23562;50.540;12.504;2023-11-19T08:39:02;3.92;;;2.20;;
37715;SDS011;23562;50.540;12.504;2023-11-19T08:41:28;7.25;;;3.72;;
37715;SDS011;23562;50.540;12.504;2023-11-19T08:43:53;10.10;;;2.40;;
37715;SDS011;23562;50.540;12.504;2023-11-19T08:46:18;3.08;;;2.00;;
37715;SDS011;23562;50.540;12.504;2023-11-19T08:48:43;4.47;;;2.25;;
37715;SDS011;23562;50.540;12.504;2023-11-19T08:51:09;2.25;;;1.90;;
37715;SDS011;23562;50.540;12.504;2023-11-19T08:53:34;4.57;;;2.33;;
37715;SDS011;23562;50.540;12.504;2023-11-19T08:55:59;3.60;;;2.33;;
37715;SDS011;23562;50.540;12.504;2023-11-19T08:58:25;4.18;;;1.98;;
37715;SDS011;23562;50.540;12.504;2023-11-19T09:00:50;2.80;;;1.80;;
37715;SDS011;23562;50.540;12.504;2023-11-19T09:03:15;4.60;;;2.88;;
37715;SDS011;23562;50.540;12.504;2023-11-19T09:05:40;2.53;;;1.83;;
37715;SDS011;23562;50.540;12.504;2023-11-19T09:08:06;3.00;;;1.90;;
37715;SDS011;23562;50.540;12.504;2023-11-19T09:10:34;2.72;;;2.22;;
37715;SDS011;23562;50.540;12.504;2023-11-19T09:12:59;2.47;;;1.40;;
37715;SDS011;23562;50.540;12.504;2023-11-19T09:15:24;1.88;;;1.55;;
37715;SDS011;23562;50.540;12.504;2023-11-19T09:17:50;2.45;;;1.90;;
37715;SDS011;23562;50.540;12.504;2023-11-19T09:20:15;2.55;;;2.05;;
37715;SDS011;23562;50.540;12.504;2023-11-19T09:22:41;1.95;;;1.70;;
37715;SDS011;23562;50.540;12.504;2023-11-19T09:25:06;3.05;;;2.10;;
37715;SDS011;23562;50.540;12.504;2023-11-19T09:27:31;2.83;;;2.22;;
37715;SDS011;23562;50.540;12.504;2023-11-19T09:29:56;4.73;;;2.23;;
37715;SDS011;23562;50.540;12.504;2023-11-19T09:32:23;2.58;;;2.17;;
37715;SDS011;23562;50.540;12.504;2023-11-19T09:34:48;8.43;;;3.13;;
37715;SDS011;23562;50.540;12.504;2023-11-19T09:37:14;4.90;;;2.40;;
37715;SDS011;23562;50.540;12.504;2023-11-19T09:39:39;4.55;;;2.47;;
37715;SDS011;23562;50.540;12.504;2023-11-19T09:42:08;5.60;;;3.65;;
37715;SDS011;23562;50.540;12.504;2023-11-19T09:44:33;7.37;;;4.13;;
37715;SDS011;23562;50.540;12.504;2023-11-19T09:46:58;23.20;;;8.57;;
37715;SDS011;23562;50.540;12.504;2023-11-19T09:49:24;5.97;;;4.38;;
37715;SDS011;23562;50.540;12.504;2023-11-19T09:51:51;5.95;;;3.60;;
37715;SDS011;23562;50.540;12.504;2023-11-19T09:54:16;8.20;;;2.63;;
37715;SDS011;23562;50.540;12.504;2023-11-19T09:56:41;4.72;;;2.50;;
37715;SDS011;23562;50.540;12.504;2023-11-19T09:59:07;5.95;;;2.60;;
37715;SDS011;23562;50.540;12.504;2023-11-19T10:01:34;5.30;;;2.92;;
37715;SDS011;23562;50.540;12.504;2023-11-19T10:04:00;6.57;;;3.20;;
37715;SDS011;23562;50.540;12.504;2023-11-19T10:06:26;3.08;;;2.13;;
37715;SDS011;23562;50.540;12.504;2023-11-19T10:08:51;7.32;;;3.00;;
37715;SDS011;23562;50.540;12.504;2023-11-19T10:11:17;8.02;;;2.78;;
37715;SDS011;23562;50.540;12.504;2023-11-19T10:13:42;13.27;;;3.05;;
37715;SDS011;23562;50.540;12.504;2023-11-19T10:16:13;6.07;;;3.35;;
37715;SDS011;23562;50.540;12.504;2023-11-19T10:18:45;11.05;;;3.10;;
37715;SDS011;23562;50.540;12.504;2023-11-19T10:21:14;5.28;;;2.65;;
37715;SDS011;23562;50.540;12.504;2023-11-19T10:23:52;11.18;;;2.38;;
37715;SDS011;23562;50.540;12.504;2023-11-19T10:26:18;8.82;;;2.85;;
37715;SDS011;23562;50.540;12.504;2023-11-19T10:28:45;6.60;;;2.03;;
37715;SDS011;23562;50.540;12.504;2023-11-19T10:31:11;16.30;;;2.78;;
37715;SDS011;23562;50.540;12.504;2023-11-19T10:33:37;9.77;;;2.33;;
37715;SDS011;23562;50.540;12.504;2023-11-19T10:36:03;12.65;;;2.35;;
37715;SDS011;23562;50.540;12.504;2023-11-19T10:38:28;15.03;;;2.73;;
37715;SDS011;23562;50.540;12.504;2023-11-19T10:40:54;10.95;;;2.55;;
37715;SDS011;23562;50.540;12.504;2023-11-19T10:43:20;10.30;;;2.25;;
37715;SDS011;23562;50.540;12.504;2023-11-19T10:45:47;11.10;;;2.63;;
37715;SDS011;23562;50.540;12.504;2023-11-19T10:48:12;9.68;;;2.53;;
37715;SDS011;23562;50.540;12.504;2023-11-19T10:50:38;10.60;;;2.90;;
37715;SDS011;23562;50.540;12.504;2023-11-19T10:53:04;10.13;;;3.47;;
37715;SDS011;23562;50.540;12.504;2023-11-19T10:55:30;11.45;;;3.08;;
37715;SDS011;23562;50.540;12.504;2023-11-19T10:58:00;9.05;;;2.83;;
37715;SDS011;23562;50.540;12.504;2023-11-19T11:00:30;29.73;;;12.63;;
37715;SDS011;23562;50.540;12.504;2023-11-19T11:03:01;21.73;;;10.13;;
37715;SDS011;23562;50.540;12.504;2023-11-19T11:05:27;12.98;;;3.10;;
37715;SDS011;23562;50.540;12.504;2023-11-19T11:07:55;9.65;;;2.65;;
37715;SDS011;23562;50.540;12.504;2023-11-19T11:10:20;23.38;;;7.65;;
37715;SDS011;23562;50.540;12.504;2023-11-19T11:12:47;20.52;;;11.32;;
37715;SDS011;23562;50.540;12.504;2023-11-19T11:15:15;9.88;;;3.03;;
37715;SDS011;23562;50.540;12.504;2023-11-19T11:17:45;17.75;;;8.77;;
37715;SDS011;23562;50.540;12.504;2023-11-19T11:20:10;5.13;;;2.13;;
37715;SDS011;23562;50.540;12.504;2023-11-19T11:25:40;10.25;;;1.75;;
37715;SDS011;23562;50.540;12.504;2023-11-19T11:28:21;3.45;;;1.70;;
37715;SDS011;23562;50.540;12.504;2023-11-19T11:30:53;5.75;;;1.90;;
37715;SDS011;23562;50.540;12.504;2023-11-19T11:33:26;8.90;;;2.25;;
37715;SDS011;23562;50.540;12.504;2023-11-19T11:36:08;6.28;;;1.92;;
37715;SDS011;23562;50.540;12.504;2023-11-19T11:38:37;5.50;;;1.73;;
37715;SDS011;23562;50.540;12.504;2023-11-19T11:41:22;6.45;;;1.70;;
37715;SDS011;23562;50.540;12.504;2023-11-19T11:43:49;7.60;;;2.85;;
37715;SDS011;23562;50.540;12.504;2023-11-19T11:54:31;7.65;;;1.50;;
37715;SDS011;23562;50.540;12.504;2023-11-19T11:57:08;7.22;;;2.30;;
37715;SDS011;23562;50.540;12.504;2023-11-19T12:02:10;11.48;;;2.88;;
37715;SDS011;23562;50.540;12.504;2023-11-19T12:04:35;6.28;;;2.17;;
37715;SDS011;23562;50.540;12.504;2023-11-19T12:07:05;4.57;;;1.77;;
37715;SDS011;23562;50.540;12.504;2023-11-19T12:09:31;6.38;;;1.75;;
37715;SDS011;23562;50.540;12.504;2023-11-19T12:12:13;4.68;;;1.50;;
37715;SDS011;23562;50.540;12.504;2023-11-19T12:14:59;6.80;;;1.60;;
37715;SDS011;23562;50.540;12.504;2023-11-19T12:20:02;8.98;;;2.22;;
37715;SDS011;23562;50.540;12.504;2023-11-19T12:22:28;11.15;;;2.60;;
37715;SDS011;23562;50.540;12.504;2023-11-19T12:24:53;6.95;;;2.20;;
37715;SDS011;23562;50.540;12.504;2023-11-19T12:27:19;5.90;;;1.88;;
37715;SDS011;23562;50.540;12.504;2023-11-19T12:29:47;7.38;;;1.60;;
37715;SDS011;23562;50.540;12.504;2023-11-19T12:32:12;9.82;;;2.60;;
37715;SDS011;23562;50.540;12.504;2023-11-19T12:34:37;8.55;;;2.38;;
37715;SDS011;23562;50.540;12.504;2023-11-19T12:37:03;11.07;;;2.50;;
37715;SDS011;23562;50.540;12.504;2023-11-19T12:39:32;11.93;;;2.00;;
37715;SDS011;23562;50.540;12.504;2023-11-19T12:41:57;12.02;;;2.42;;
37715;SDS011;23562;50.540;12.504;2023-11-19T12:44:36;7.90;;;2.00;;
37715;SDS011;23562;50.540;12.504;2023-11-19T12:47:02;7.75;;;2.20;;
37715;SDS011;23562;50.540;12.504;2023-11-19T12:49:28;6.13;;;1.50;;
37715;SDS011;23562;50.540;12.504;2023-11-19T12:51:53;5.75;;;1.90;;
37715;SDS011;23562;50.540;12.504;2023-11-19T12:54:31;7.68;;;3.13;;
37715;SDS011;23562;50.540;12.504;2023-11-19T12:56:56;34.53;;;12.30;;
37715;SDS011;23562;50.540;12.504;2023-11-19T12:59:21;9.18;;;2.85;;
37715;SDS011;23562;50.540;12.504;2023-11-19T13:01:56;11.32;;;3.42;;
37715;SDS011;23562;50.540;12.504;2023-11-19T13:04:21;8.00;;;3.20;;
37715;SDS011;23562;50.540;12.504;2023-11-19T13:06:47;12.48;;;2.22;;
37715;SDS011;23562;50.540;12.504;2023-11-19T13:09:30;11.38;;;3.60;;
37715;SDS011;23562;50.540;12.504;2023-11-19T13:11:55;11.43;;;4.80;;
37715;SDS011;23562;50.540;12.504;2023-11-19T13:14:35;10.95;;;2.90;;
37715;SDS011;23562;50.540;12.504;2023-11-19T13:17:01;11.15;;;2.50;;
37715;SDS011;23562;50.540;12.504;2023-11-19T13:19:26;7.90;;;2.15;;
37715;SDS011;23562;50.540;12.504;2023-11-19T13:21:51;8.45;;;3.17;;
37715;SDS011;23562;50.540;12.504;2023-11-19T13:24:16;9.25;;;2.50;;
37715;SDS011;23562;50.540;12.504;2023-11-19T13:26:41;10.07;;;2.28;;
37715;SDS011;23562;50.540;12.504;2023-11-19T13:29:07;8.65;;;3.00;;
37715;SDS011;23562;50.540;12.504;2023-11-19T13:31:32;10.70;;;2.90;;
37715;SDS011;23562;50.540;12.504;2023-11-19T13:33:57;11.53;;;3.77;;
37715;SDS011;23562;50.540;12.504;2023-11-19T13:36:23;14.10;;;5.63;;
37715;SDS011;23562;50.540;12.504;2023-11-19T13:38:48;13.75;;;2.58;;
37715;SDS011;23562;50.540;12.504;2023-11-19T13:41:13;6.78;;;2.50;;
37715;SDS011;23562;50.540;12.504;2023-11-19T13:43:39;14.80;;;3.63;;
37715;SDS011;23562;50.540;12.504;2023-11-19T13:46:04;7.82;;;2.40;;
37715;SDS011;23562;50.540;12.504;2023-11-19T13:48:30;6.38;;;2.13;;
37715;SDS011;23562;50.540;12.504;2023-11-19T13:50:55;8.52;;;2.15;;
37715;SDS011;23562;50.540;12.504;2023-11-19T13:53:20;11.27;;;2.88;;
37715;SDS011;23562;50.540;12.504;2023-11-19T13:56:03;30.05;;;8.82;;
37715;SDS011;23562;50.540;12.504;2023-11-19T13:58:28;11.77;;;3.83;;
37715;SDS011;23562;50.540;12.504;2023-11-19T14:00:53;11.18;;;2.78;;
37715;SDS011;23562;50.540;12.504;2023-11-19T14:03:18;24.88;;;7.90;;
37715;SDS011;23562;50.540;12.504;2023-11-19T14:05:43;21.63;;;4.22;;
37715;SDS011;23562;50.540;12.504;2023-11-19T14:08:09;23.83;;;7.00;;
37715;SDS011;23562;50.540;12.504;2023-11-19T14:10:37;31.67;;;9.73;;
37715;SDS011;23562;50.540;12.504;2023-11-19T14:13:04;48.53;;;13.55;;
37715;SDS011;23562;50.540;12.504;2023-11-19T14:15:29;35.97;;;11.15;;
37715;SDS011;23562;50.540;12.504;2023-11-19T14:17:54;41.85;;;10.95;;
37715;SDS011;23562;50.540;12.504;2023-11-19T14:20:19;65.35;;;18.67;;
37715;SDS011;23562;50.540;12.504;2023-11-19T14:22:45;48.42;;;11.80;;
37715;SDS011;23562;50.540;12.504;2023-11-19T14:25:15;38.58;;;9.73;;
37715;SDS011;23562;50.540;12.504;2023-11-19T14:27:40;60.25;;;14.50;;
37715;SDS011;23562;50.540;12.504;2023-11-19T14:30:06;62.15;;;13.23;;
37715;SDS011;23562;50.540;12.504;2023-11-19T14:32:32;18.98;;;4.18;;
37715;SDS011;23562;50.540;12.504;2023-11-19T14:34:57;41.63;;;10.05;;
37715;SDS011;23562;50.540;12.504;2023-11-19T14:37:22;50.40;;;10.37;;
37715;SDS011;23562;50.540;12.504;2023-11-19T14:39:47;38.35;;;12.00;;
37715;SDS011;23562;50.540;12.504;2023-11-19T14:42:15;12.05;;;2.92;;
37715;SDS011;23562;50.540;12.504;2023-11-19T14:44:40;15.77;;;4.28;;